Time;durP1;ratioP1;P1;durP2;ratioP2;P2;SDS_P1;SDS_P2;PMS_P1;PMS_P2;Temp;Humidity;BMP_temperature;BMP_pressure;BME280_temperature;BME280_humidity;BME280_pressure;Samples;Min_cycle;Max_cycle;Signal;HPM_P1;HPM_P2
2022/10/11 04:01:45;;;;;;;12.40;7.97;;;14.60;99.90;;;;;;5343157;23;20570;-72
2022/10/11 04:04:12;;;;;;;13.93;10.40;;;14.60;99.90;;;;;;4913816;29;20466;-73
2022/10/11 04:06:39;;;;;;;23.77;13.00;;;14.60;99.90;;;;;;4913847;29;20471;-73
2022/10/11 04:09:05;;;;;;;23.00;14.13;;;14.60;99.90;;;;;;4914194;29;20471;-73
2022/10/11 04:11:32;;;;;;;20.50;12.90;;;14.60;99.90;;;;;;4903105;29;20480;-73
2022/10/11 04:13:59;;;;;;;18.50;13.23;;;14.60;99.90;;;;;;4894867;29;20463;-77
2022/10/11 04:16:26;;;;;;;19.97;13.77;;;14.70;99.90;;;;;;4895815;29;20472;-74
2022/10/11 04:18:54;;;;;;;19.33;13.60;;;14.70;99.90;;;;;;4896344;29;20837;-73
2022/10/11 04:21:21;;;;;;;20.53;12.50;;;14.70;99.90;;;;;;4896254;29;20862;-73
2022/10/11 04:23:47;;;;;;;17.70;11.77;;;14.70;99.90;;;;;;4896360;29;20984;-72
2022/10/11 04:26:14;;;;;;;20.50;12.67;;;14.60;99.90;;;;;;4900931;29;20464;-77
2022/10/11 04:28:41;;;;;;;19.83;13.77;;;14.70;99.90;;;;;;4915063;29;20461;-72
2022/10/11 04:31:08;;;;;;;21.60;13.10;;;14.70;99.90;;;;;;4913114;29;20478;-70
2022/10/11 04:33:34;;;;;;;23.90;13.50;;;14.70;99.90;;;;;;4893039;29;20468;-70
2022/10/11 04:36:03;;;;;;;24.47;14.20;;;14.70;99.90;;;;;;4893318;29;20471;-70
2022/10/11 04:38:29;;;;;;;20.53;14.73;;;14.70;99.90;;;;;;4893259;29;20833;-70
2022/10/11 04:41:05;;;;;;;25.07;15.80;;;14.70;99.90;;;;;;4893272;29;20500;-70
2022/10/11 04:43:31;;;;;;;23.17;14.93;;;14.70;99.90;;;;;;4894666;29;20452;-75
2022/10/11 04:45:58;;;;;;;26.23;13.90;;;14.70;99.90;;;;;;4893891;29;20840;-74
2022/10/11 04:48:25;;;;;;;17.57;12.10;;;14.70;99.90;;;;;;4894822;29;20981;-76
2022/10/11 04:50:51;;;;;;;19.20;11.93;;;14.60;99.90;;;;;;4895439;29;20484;-76
2022/10/11 04:53:19;;;;;;;16.00;11.27;;;14.50;99.90;;;;;;4895392;29;20467;-74
2022/10/11 04:55:56;;;;;;;16.40;11.77;;;14.50;99.90;;;;;;4895004;29;20474;-74
2022/10/11 04:58:23;;;;;;;20.93;10.60;;;14.40;99.90;;;;;;4895131;29;20452;-74
2022/10/11 05:00:50;;;;;;;22.33;12.07;;;14.40;99.90;;;;;;4894261;29;20495;-75
2022/10/11 05:03:16;;;;;;;23.60;13.93;;;14.40;99.90;;;;;;4894576;29;20917;-74
2022/10/11 05:05:43;;;;;;;24.30;14.40;;;14.40;99.90;;;;;;4893605;29;20460;-77
2022/10/11 05:08:11;;;;;;;24.17;13.97;;;14.40;99.90;;;;;;4906523;29;20467;-74
2022/10/11 05:10:39;;;;;;;19.90;14.67;;;14.40;99.90;;;;;;4912950;29;20491;-77
2022/10/11 05:13:06;;;;;;;23.70;15.63;;;14.50;99.90;;;;;;4912522;29;20739;-74
2022/10/11 05:15:34;;;;;;;27.60;16.70;;;14.50;99.90;;;;;;4885237;29;20505;-74
2022/10/11 05:18:00;;;;;;;30.50;16.77;;;14.50;99.90;;;;;;4894396;29;20460;-74
2022/10/11 05:20:27;;;;;;;26.73;16.50;;;14.50;99.90;;;;;;4893417;29;20468;-81
2022/10/11 05:22:54;;;;;;;25.70;16.10;;;14.40;99.90;;;;;;4894247;29;20509;-76
2022/10/11 05:25:21;;;;;;;30.27;16.67;;;14.50;99.90;;;;;;4878415;29;20981;-74
2022/10/11 05:27:49;;;;;;;27.03;16.90;;;14.50;99.90;;;;;;4874892;29;20465;-74
2022/10/11 05:30:16;;;;;;;28.57;15.40;;;14.50;99.90;;;;;;4877922;29;20484;-74
2022/10/11 05:32:42;;;;;;;26.57;16.20;;;14.40;99.90;;;;;;4894829;29;20475;-75
2022/10/11 05:35:09;;;;;;;26.67;15.03;;;14.50;99.90;;;;;;4894226;29;21269;-74
2022/10/11 05:37:36;;;;;;;28.63;15.23;;;14.50;99.90;;;;;;4894595;29;20984;-74
2022/10/11 05:40:03;;;;;;;23.00;15.13;;;14.50;99.90;;;;;;4894518;29;20475;-74
2022/10/11 05:42:30;;;;;;;24.53;15.30;;;14.50;99.90;;;;;;4894422;29;20496;-74
2022/10/11 05:44:58;;;;;;;28.10;14.63;;;14.50;99.90;;;;;;4885356;29;20457;-74
2022/10/11 05:47:25;;;;;;;24.80;16.07;;;14.50;99.90;;;;;;4884822;29;20473;-74
2022/10/11 05:49:52;;;;;;;24.20;15.10;;;14.60;99.90;;;;;;4876226;29;20480;-74
2022/10/11 05:52:20;;;;;;;28.73;16.33;;;14.60;99.90;;;;;;4912604;29;20484;-73
2022/10/11 05:54:47;;;;;;;28.47;14.80;;;14.60;99.90;;;;;;4912227;29;20491;-76
2022/10/11 05:57:14;;;;;;;28.23;17.23;;;14.60;99.90;;;;;;4912768;29;20978;-75
2022/10/11 05:59:41;;;;;;;21.10;14.30;;;14.60;99.90;;;;;;4908337;29;20956;-75
2022/10/11 06:02:11;;;;;;;35.03;15.83;;;14.60;99.90;;;;;;4880562;29;20890;-75
2022/10/11 06:04:38;;;;;;;23.63;14.47;;;14.60;99.90;;;;;;4874928;29;20501;-75
2022/10/11 06:07:05;;;;;;;23.80;14.87;;;14.60;99.90;;;;;;4875249;29;20811;-75
2022/10/11 06:09:33;;;;;;;22.73;13.33;;;14.60;99.90;;;;;;4875403;29;20465;-76
2022/10/11 06:12:00;;;;;;;23.40;14.23;;;14.60;99.90;;;;;;4875266;29;20485;-75
2022/10/11 06:14:28;;;;;;;21.97;14.20;;;14.60;99.90;;;;;;4874729;29;20465;-75
2022/10/11 06:16:54;;;;;;;25.30;15.90;;;14.60;99.90;;;;;;4875139;29;20897;-78
2022/10/11 06:19:23;;;;;;;25.37;15.33;;;14.60;99.90;;;;;;4889493;29;20477;-74
2022/10/11 06:21:49;;;;;;;23.67;14.40;;;14.60;99.90;;;;;;4881049;29;20497;-75
2022/10/11 06:24:16;;;;;;;31.17;16.30;;;14.60;99.90;;;;;;4872977;29;20942;-77
2022/10/11 06:26:43;;;;;;;24.83;14.20;;;14.60;99.90;;;;;;4874984;29;20957;-75
2022/10/11 06:29:10;;;;;;;29.63;15.80;;;14.60;99.90;;;;;;4875393;29;20463;-75
2022/10/11 06:31:37;;;;;;;19.20;14.37;;;14.70;99.90;;;;;;4875271;29;20481;-75
2022/10/11 06:34:04;;;;;;;20.17;13.87;;;14.60;99.90;;;;;;4874506;29;20472;-80
2022/10/11 06:36:32;;;;;;;26.23;15.87;;;14.70;99.90;;;;;;4874928;29;20469;-78
2022/10/11 06:39:02;;;;;;;25.80;16.43;;;14.70;99.90;;;;;;4886434;29;20572;-79
2022/10/11 06:41:30;;;;;;;27.30;15.10;;;14.70;99.90;;;;;;4893865;29;20480;-75
2022/10/11 06:43:57;;;;;;;25.60;16.30;;;14.70;99.90;;;;;;4893500;29;20468;-80
2022/10/11 06:46:26;;;;;;;28.57;17.43;;;14.80;99.90;;;;;;4893537;29;20464;-75
2022/10/11 06:48:55;;;;;;;33.40;17.80;;;14.70;99.90;;;;;;4893742;29;20475;-75
2022/10/11 06:51:23;;;;;;;22.23;15.60;;;14.80;99.90;;;;;;4893322;29;20572;-75
2022/10/11 06:53:54;;;;;;;26.10;16.00;;;14.80;99.90;;;;;;4893565;29;20831;-78
2022/10/11 06:56:21;;;;;;;26.80;15.90;;;14.70;99.90;;;;;;4892645;29;20552;-75
2022/10/11 06:58:49;;;;;;;28.77;17.20;;;14.80;99.90;;;;;;4893352;29;20476;-75
2022/10/11 07:01:18;;;;;;;26.67;15.80;;;14.80;99.90;;;;;;4893615;29;20506;-75
2022/10/11 07:03:46;;;;;;;28.67;16.23;;;14.80;99.90;;;;;;4893466;29;20460;-74
2022/10/11 07:06:14;;;;;;;24.90;15.43;;;14.80;99.90;;;;;;4892662;29;20461;-76
2022/10/11 07:08:41;;;;;;;29.10;17.20;;;14.80;99.90;;;;;;4892923;29;20480;-75
2022/10/11 07:11:10;;;;;;;27.87;16.43;;;14.70;99.90;;;;;;4893547;29;20597;-77
2022/10/11 07:13:38;;;;;;;32.33;17.97;;;14.80;99.90;;;;;;4893068;29;20463;-74
2022/10/11 07:16:07;;;;;;;27.80;16.87;;;14.80;99.90;;;;;;4891134;29;20462;-75
2022/10/11 07:18:34;;;;;;;28.97;18.07;;;14.80;99.90;;;;;;4892475;29;20459;-78
2022/10/11 07:21:04;;;;;;;30.70;17.53;;;14.80;99.90;;;;;;4892221;29;20472;-75
2022/10/11 07:23:31;;;;;;;32.23;18.90;;;14.90;99.90;;;;;;4893050;29;20496;-74
2022/10/11 07:25:58;;;;;;;32.33;18.27;;;14.90;99.90;;;;;;4892582;29;20472;-78
2022/10/11 07:28:27;;;;;;;38.03;18.97;;;14.90;99.90;;;;;;4892769;29;20468;-75
2022/10/11 07:30:54;;;;;;;31.17;18.53;;;15.00;99.90;;;;;;4892986;29;20579;-75
2022/10/11 07:33:21;;;;;;;34.50;18.97;;;15.00;99.90;;;;;;4874090;29;20485;-75
2022/10/11 07:35:48;;;;;;;37.13;19.87;;;15.00;99.90;;;;;;4873464;29;20842;-78
2022/10/11 07:38:15;;;;;;;32.63;18.33;;;15.00;99.90;;;;;;4874301;29;20477;-76
2022/10/11 07:40:43;;;;;;;30.33;17.20;;;14.90;99.90;;;;;;4873892;29;20493;-78
2022/10/11 07:43:10;;;;;;;33.40;19.07;;;14.90;99.90;;;;;;4874424;29;20500;-75
2022/10/11 07:45:39;;;;;;;31.10;17.37;;;14.90;99.90;;;;;;4873731;29;20473;-77
2022/10/11 07:48:06;;;;;;;42.67;19.13;;;15.00;99.90;;;;;;4876732;29;20468;-75
2022/10/11 07:50:34;;;;;;;36.17;19.40;;;15.00;99.90;;;;;;4892044;29;20495;-79
2022/10/11 07:53:01;;;;;;;33.97;17.00;;;15.00;99.90;;;;;;4892736;29;20449;-75
2022/10/11 07:55:29;;;;;;;30.27;18.13;;;15.00;99.90;;;;;;4891986;29;20460;-75
2022/10/11 07:57:55;;;;;;;29.27;18.83;;;15.00;99.90;;;;;;4892527;29;20464;-75
2022/10/11 08:00:22;;;;;;;39.90;19.20;;;15.00;99.90;;;;;;4892308;29;20475;-75
2022/10/11 08:02:50;;;;;;;37.33;20.13;;;15.00;99.90;;;;;;4892817;29;20494;-77
2022/10/11 08:05:17;;;;;;;30.50;18.63;;;15.00;99.90;;;;;;4892003;29;20830;-75
2022/10/11 08:07:44;;;;;;;36.60;20.00;;;15.00;99.90;;;;;;4892938;29;20464;-75
2022/10/11 08:10:11;;;;;;;38.23;19.40;;;15.00;99.90;;;;;;4892334;29;20464;-75
2022/10/11 08:12:38;;;;;;;38.20;19.30;;;15.00;99.90;;;;;;4892843;29;20453;-81
2022/10/11 08:15:05;;;;;;;36.20;20.10;;;15.00;99.90;;;;;;4891799;29;20474;-75
2022/10/11 08:17:32;;;;;;;41.83;20.40;;;15.00;99.90;;;;;;4892628;29;20471;-78
2022/10/11 08:20:00;;;;;;;35.37;20.80;;;15.00;99.90;;;;;;4892618;29;20467;-76
2022/10/11 08:22:27;;;;;;;45.00;20.33;;;15.00;99.90;;;;;;4881577;29;20497;-80
2022/10/11 08:24:54;;;;;;;39.93;20.37;;;15.10;99.90;;;;;;4876905;29;20472;-74
2022/10/11 08:27:21;;;;;;;37.30;19.10;;;15.10;99.90;;;;;;4895561;29;20464;-76
2022/10/11 08:29:47;;;;;;;40.40;20.63;;;15.20;99.90;;;;;;4895767;29;20464;-75
2022/10/11 08:32:14;;;;;;;34.97;20.23;;;15.20;99.90;;;;;;4883801;29;21183;-75
2022/10/11 08:34:42;;;;;;;38.53;20.10;;;15.20;99.90;;;;;;4876606;29;20465;-75
2022/10/11 08:37:10;;;;;;;36.30;19.67;;;15.20;99.90;;;;;;4876961;29;20468;-75
2022/10/11 08:39:37;;;;;;;41.60;19.87;;;15.20;99.90;;;;;;4877080;29;21345;-81
2022/10/11 08:42:08;;;;;;;42.53;20.37;;;15.30;99.90;;;;;;4880265;29;20484;-75
2022/10/11 08:44:41;;;;;;;36.50;17.93;;;15.30;99.90;;;;;;4882478;29;20449;-81
2022/10/11 08:47:12;;;;;;;38.27;19.20;;;15.30;99.90;;;;;;4876676;29;20494;-75
2022/10/11 08:49:39;;;;;;;37.93;19.00;;;15.30;99.90;;;;;;4876447;29;20467;-75
2022/10/11 08:52:14;;;;;;;40.00;19.27;;;15.30;99.90;;;;;;4875933;29;20476;-75
2022/10/11 08:54:46;;;;;;;36.10;19.07;;;15.40;99.90;;;;;;4876380;29;20453;-74
2022/10/11 08:57:16;;;;;;;38.80;19.33;;;15.40;99.90;;;;;;4876573;29;20453;-75
2022/10/11 08:59:48;;;;;;;33.40;16.90;;;15.40;99.90;;;;;;4876951;29;20462;-75
2022/10/11 09:02:32;;;;;;;33.67;19.13;;;15.40;99.90;;;;;;4876273;29;20499;-75
2022/10/11 09:05:00;;;;;;;33.97;17.57;;;15.50;99.90;;;;;;4875847;29;20923;-75
2022/10/11 09:07:42;;;;;;;30.87;17.43;;;15.50;99.90;;;;;;4876148;29;20969;-75
2022/10/11 09:10:34;;;;;;;28.97;17.53;;;15.50;99.90;;;;;;4876627;29;20483;-77
2022/10/11 09:13:08;;;;;;;30.47;18.13;;;15.50;99.90;;;;;;4876346;29;20837;-75
2022/10/11 09:15:42;;;;;;;28.03;16.33;;;15.50;99.90;;;;;;4875787;29;20551;-75
2022/10/11 09:18:39;;;;;;;28.80;16.33;;;15.50;99.90;;;;;;4876152;29;20461;-75
2022/10/11 09:21:19;;;;;;;22.73;15.07;;;15.50;99.90;;;;;;4875895;29;20500;-77
2022/10/11 09:24:16;;;;;;;31.20;15.30;;;15.50;99.90;;;;;;4874879;29;20481;-75
2022/10/11 09:26:53;;;;;;;26.20;14.57;;;15.50;99.90;;;;;;4874876;29;20449;-75
2022/10/11 09:29:31;;;;;;;25.90;14.13;;;15.60;99.90;;;;;;4876003;29;20464;-78
2022/10/11 09:31:59;;;;;;;20.63;14.37;;;15.60;99.90;;;;;;4875827;29;20488;-75
2022/10/11 09:34:31;;;;;;;22.90;13.80;;;15.60;99.90;;;;;;4874848;29;20461;-75
2022/10/11 09:37:03;;;;;;;24.73;13.80;;;15.60;99.90;;;;;;4875418;29;21307;-75
2022/10/11 09:39:34;;;;;;;22.00;12.90;;;15.60;99.90;;;;;;4875703;29;20896;-75
2022/10/11 09:42:02;;;;;;;21.53;14.27;;;15.60;99.90;;;;;;4876339;29;20508;-76
2022/10/11 09:44:32;;;;;;;20.80;13.07;;;15.60;99.90;;;;;;4872858;29;20501;-76
2022/10/11 09:46:59;;;;;;;18.83;11.40;;;15.60;99.90;;;;;;4873430;29;20970;-76
2022/10/11 09:49:32;;;;;;;20.63;13.03;;;15.60;99.90;;;;;;4873711;29;20469;-77
2022/10/11 09:52:02;;;;;;;19.40;12.60;;;15.70;99.90;;;;;;4873566;29;20592;-77
2022/10/11 09:54:41;;;;;;;26.20;12.53;;;15.70;99.90;;;;;;4873050;29;20483;-76
2022/10/11 09:57:22;;;;;;;20.13;12.30;;;15.70;99.90;;;;;;4873923;29;20460;-77
2022/10/11 09:59:59;;;;;;;27.50;12.80;;;15.80;99.90;;;;;;4873758;29;20473;-76
2022/10/11 10:02:26;;;;;;;21.90;13.27;;;15.80;99.90;;;;;;4872963;29;20493;-77
2022/10/11 10:05:00;;;;;;;19.77;12.50;;;15.90;99.90;;;;;;4872779;29;20472;-76
2022/10/11 10:07:29;;;;;;;22.93;12.80;;;16.00;99.90;;;;;;4873440;29;20465;-76
2022/10/11 10:09:57;;;;;;;21.30;12.10;;;16.00;99.90;;;;;;4873494;29;20480;-76
2022/10/11 10:12:27;;;;;;;19.97;12.40;;;16.10;99.90;;;;;;4873113;29;20493;-76
2022/10/11 10:15:05;;;;;;;23.97;11.60;;;16.10;99.90;;;;;;4872140;29;20473;-76
2022/10/11 10:17:32;;;;;;;28.60;12.30;;;16.20;99.90;;;;;;4872712;29;20453;-76
2022/10/11 10:20:00;;;;;;;19.43;11.73;;;16.20;99.90;;;;;;4872753;29;20962;-76
2022/10/11 10:22:30;;;;;;;17.40;11.07;;;16.30;99.90;;;;;;4872519;29;20484;-76
2022/10/11 10:25:02;;;;;;;22.63;12.03;;;16.40;99.90;;;;;;4872116;29;20461;-78
2022/10/11 10:27:30;;;;;;;22.80;13.33;;;16.40;99.90;;;;;;4872885;29;20449;-77
2022/10/11 10:30:12;;;;;;;21.10;12.53;;;16.40;99.90;;;;;;4870966;29;20962;-76
2022/10/11 10:32:51;;;;;;;20.37;11.67;;;16.50;99.90;;;;;;4871543;29;20525;-76
2022/10/11 10:35:29;;;;;;;13.50;10.57;;;16.60;99.90;;;;;;4870687;29;20465;-76
2022/10/11 10:38:06;;;;;;;21.63;11.37;;;16.60;99.90;;;;;;4871830;29;20456;-76
2022/10/11 10:40:40;;;;;;;22.53;11.97;;;16.60;99.90;;;;;;4871740;29;20481;-77
2022/10/11 10:43:14;;;;;;;19.33;11.50;;;16.60;99.90;;;;;;4871229;29;20492;-76
2022/10/11 10:45:57;;;;;;;17.50;11.60;;;16.70;99.90;;;;;;4871049;29;20572;-76
2022/10/11 10:48:33;;;;;;;19.47;10.97;;;16.70;99.90;;;;;;4871633;29;20461;-76
2022/10/11 10:51:08;;;;;;;18.30;11.77;;;16.80;99.90;;;;;;4871551;29;20484;-76
2022/10/11 10:53:40;;;;;;;25.67;12.07;;;16.90;99.90;;;;;;4871143;29;20457;-70
2022/10/11 10:56:14;;;;;;;17.17;12.30;;;16.90;99.90;;;;;;4871376;29;20471;-74
2022/10/11 10:59:01;;;;;;;17.77;11.00;;;17.10;99.90;;;;;;4871667;29;20461;-71
2022/10/11 11:01:31;;;;;;;21.50;11.13;;;17.30;99.90;;;;;;4870936;29;20501;-71
2022/10/11 11:04:08;;;;;;;17.83;10.40;;;17.50;99.90;;;;;;4870906;29;20523;-72
2022/10/11 11:06:42;;;;;;;17.20;10.10;;;17.70;99.90;;;;;;4871534;29;20974;-72
2022/10/11 11:09:27;;;;;;;17.70;9.20;;;17.90;99.90;;;;;;4872680;29;20456;-72
2022/10/11 11:12:04;;;;;;;18.87;9.80;;;18.10;99.90;;;;;;4871559;29;20492;-77
2022/10/11 11:14:44;;;;;;;15.70;9.07;;;18.10;99.90;;;;;;4871151;29;20457;-78
2022/10/11 11:17:23;;;;;;;12.60;8.93;;;18.20;99.90;;;;;;4872175;29;20449;-78
2022/10/11 11:20:06;;;;;;;16.30;9.37;;;18.20;99.90;;;;;;4872062;29;20513;-78
2022/10/11 11:22:45;;;;;;;14.33;9.20;;;18.10;99.90;;;;;;4871821;29;21025;-77
2022/10/11 11:25:25;;;;;;;16.13;8.70;;;18.10;99.90;;;;;;4871595;29;20472;-77
2022/10/11 11:28:06;;;;;;;13.47;9.13;;;18.20;99.90;;;;;;4872308;29;20448;-77
2022/10/11 11:30:39;;;;;;;16.10;7.90;;;18.20;99.90;;;;;;4871856;29;20972;-78
2022/10/11 11:33:19;;;;;;;16.13;8.23;;;18.20;99.90;;;;;;4871863;29;20528;-78
2022/10/11 11:35:51;;;;;;;15.17;8.53;;;18.20;99.90;;;;;;4871233;29;20454;-78
2022/10/11 11:38:22;;;;;;;14.63;9.13;;;18.20;99.90;;;;;;4872178;29;20464;-78
2022/10/11 11:40:54;;;;;;;16.60;9.50;;;18.20;99.90;;;;;;4872187;29;20472;-78
2022/10/11 11:43:27;;;;;;;14.57;7.90;;;18.10;99.90;;;;;;4871856;29;20489;-78
2022/10/11 11:45:58;;;;;;;19.63;8.77;;;18.10;99.90;;;;;;4871026;29;20556;-78
2022/10/11 11:48:26;;;;;;;14.30;8.43;;;18.20;99.90;;;;;;4871700;29;21251;-79
2022/10/11 11:51:00;;;;;;;19.20;8.93;;;18.20;99.90;;;;;;4871524;29;21001;-78
2022/10/11 11:53:49;;;;;;;10.53;7.77;;;18.20;99.90;;;;;;4871792;29;20460;-77
2022/10/11 11:56:26;;;;;;;13.00;7.83;;;18.20;99.90;;;;;;4874299;29;20531;-77
2022/10/11 11:59:02;;;;;;;12.27;7.97;;;18.40;99.90;;;;;;4875982;29;20449;-77
2022/10/11 12:01:37;;;;;;;10.57;7.57;;;18.40;99.90;;;;;;4873415;29;20499;-76
2022/10/11 12:04:09;;;;;;;14.43;7.67;;;18.50;99.90;;;;;;4873768;29;21088;-76
2022/10/11 12:06:37;;;;;;;11.17;6.93;;;18.60;99.90;;;;;;4874052;29;20472;-76
2022/10/11 12:09:07;;;;;;;15.20;7.73;;;18.60;99.90;;;;;;4874513;29;20480;-76
2022/10/11 12:11:46;;;;;;;15.83;8.60;;;18.60;99.90;;;;;;4873968;29;20994;-76
2022/10/11 12:14:28;;;;;;;12.83;7.83;;;18.70;99.90;;;;;;4873696;29;20445;-76
2022/10/11 12:17:22;;;;;;;11.73;7.13;;;18.60;99.90;;;;;;4873964;29;20547;-76
2022/10/11 12:20:12;;;;;;;13.20;7.70;;;18.50;99.90;;;;;;4874548;29;20453;-76
2022/10/11 12:23:01;;;;;;;13.23;7.17;;;18.40;99.90;;;;;;4873941;29;20457;-76
2022/10/11 12:25:35;;;;;;;12.13;7.23;;;18.50;99.90;;;;;;4868143;29;20476;-76
2022/10/11 12:28:18;;;;;;;11.43;7.03;;;18.50;99.90;;;;;;4874267;29;20463;-76
2022/10/11 12:31:03;;;;;;;13.10;7.17;;;18.50;99.90;;;;;;4873431;29;20485;-76
2022/10/11 12:33:48;;;;;;;12.37;7.43;;;18.60;99.90;;;;;;4874213;29;20425;-76
2022/10/11 12:36:32;;;;;;;13.57;7.27;;;18.60;99.90;;;;;;4873265;29;20449;-76
2022/10/11 12:39:42;;;;;;;11.50;7.40;;;18.50;99.90;;;;;;4873794;29;20453;-76
2022/10/11 12:42:23;;;;;;;12.43;6.63;;;18.40;99.90;;;;;;4873693;29;20480;-78
2022/10/11 12:45:30;;;;;;;12.10;7.23;;;18.40;99.90;;;;;;4873447;29;20504;-78
2022/10/11 12:48:20;;;;;;;10.10;6.90;;;18.50;99.90;;;;;;4874945;29;20471;-78
2022/10/11 12:51:05;;;;;;;13.90;7.73;;;18.50;99.90;;;;;;4874611;29;20501;-78
2022/10/11 12:53:54;;;;;;;10.13;7.57;;;18.40;99.90;;;;;;4874285;29;20940;-78
2022/10/11 12:56:28;;;;;;;15.03;8.77;;;18.40;99.90;;;;;;4871638;29;20483;-78
2022/10/11 12:59:02;;;;;;;12.23;7.57;;;18.40;99.90;;;;;;4874383;29;20898;-79
2022/10/11 13:01:34;;;;;;;10.90;6.70;;;18.50;99.90;;;;;;4874320;29;20488;-78
2022/10/11 13:04:06;;;;;;;14.03;7.43;;;18.50;99.90;;;;;;4873844;29;21165;-78
2022/10/11 13:06:37;;;;;;;15.80;7.10;;;18.60;99.90;;;;;;4873861;29;20452;-72
2022/10/11 13:09:06;;;;;;;13.80;6.93;;;18.60;99.90;;;;;;4873909;29;20504;-72
2022/10/11 13:11:37;;;;;;;11.47;6.70;;;18.60;99.90;;;;;;4874295;29;20492;-72
2022/10/11 13:14:11;;;;;;;13.90;6.43;;;18.60;99.90;;;;;;4873474;29;20465;-72
2022/10/11 13:16:58;;;;;;;15.07;8.00;;;18.60;99.90;;;;;;4873795;29;20472;-77
2022/10/11 13:19:27;;;;;;;13.80;6.50;;;18.60;99.90;;;;;;4874012;29;20842;-78
2022/10/11 13:21:57;;;;;;;11.47;7.00;;;18.70;99.90;;;;;;4874010;29;20492;-78
2022/10/11 13:24:24;;;;;;;12.10;7.20;;;18.70;99.90;;;;;;4873256;29;20500;-77
2022/10/11 13:26:54;;;;;;;15.10;8.40;;;18.80;99.90;;;;;;4873812;29;21515;-78
2022/10/11 13:29:30;;;;;;;15.43;6.80;;;18.80;99.90;;;;;;4873991;29;20841;-77
2022/10/11 13:31:57;;;;;;;20.43;7.90;;;18.80;99.90;;;;;;4873462;29;20993;-77
2022/10/11 13:34:26;;;;;;;15.83;7.40;;;18.80;99.90;;;;;;4873202;29;20461;-78
2022/10/11 13:36:57;;;;;;;13.77;7.73;;;18.80;99.90;;;;;;4873855;29;20473;-77
2022/10/11 13:39:28;;;;;;;14.23;7.53;;;18.70;99.90;;;;;;4873993;29;20465;-77
2022/10/11 13:41:56;;;;;;;10.60;6.67;;;18.70;99.90;;;;;;4873541;29;21073;-77
2022/10/11 13:44:24;;;;;;;13.40;6.90;;;18.70;99.90;;;;;;4872686;29;21115;-77
2022/10/11 13:46:51;;;;;;;10.60;6.40;;;18.70;99.90;;;;;;4873693;29;20461;-77
2022/10/11 13:49:36;;;;;;;13.50;6.63;;;18.70;99.90;;;;;;4873541;29;20460;-77
2022/10/11 13:52:06;;;;;;;12.93;7.07;;;18.60;99.90;;;;;;4872085;29;20488;-77
2022/10/11 13:54:57;;;;;;;10.70;5.93;;;18.50;99.90;;;;;;4872547;29;20457;-77
2022/10/11 13:57:34;;;;;;;14.13;6.77;;;18.40;99.90;;;;;;4873533;29;20521;-77
2022/10/11 14:00:03;;;;;;;11.90;6.70;;;18.40;99.90;;;;;;4872888;29;20497;-79
2022/10/11 14:02:32;;;;;;;12.83;7.30;;;18.40;99.90;;;;;;4871661;29;20603;-76
2022/10/11 14:05:00;;;;;;;12.43;7.33;;;18.30;99.90;;;;;;4872791;29;20503;-76
2022/10/11 14:07:33;;;;;;;12.47;6.80;;;18.20;99.90;;;;;;4873203;29;20461;-76
2022/10/11 14:10:00;;;;;;;13.23;6.73;;;18.20;99.90;;;;;;4873443;29;20453;-77
2022/10/11 14:12:30;;;;;;;18.33;7.80;;;18.20;99.90;;;;;;4873105;29;20488;-76
2022/10/11 14:14:58;;;;;;;19.50;8.47;;;18.10;99.90;;;;;;4872914;29;20501;-76
2022/10/11 14:17:36;;;;;;;14.73;7.77;;;18.00;99.90;;;;;;4873458;29;20465;-76
2022/10/11 14:20:14;;;;;;;14.00;7.93;;;17.90;99.90;;;;;;4872408;29;20453;-77
2022/10/11 14:22:41;;;;;;;15.30;8.30;;;17.90;99.90;;;;;;4873174;29;20452;-77
2022/10/11 14:25:08;;;;;;;16.23;8.60;;;17.90;99.90;;;;;;4872357;29;20500;-77
2022/10/11 14:27:36;;;;;;;19.50;8.47;;;17.90;99.90;;;;;;4873285;29;20476;-76
2022/10/11 14:30:04;;;;;;;15.00;8.20;;;17.90;99.90;;;;;;4873162;29;20461;-76
2022/10/11 14:32:33;;;;;;;12.50;7.80;;;17.80;99.90;;;;;;4872701;29;20492;-77
2022/10/11 14:35:00;;;;;;;10.07;7.33;;;17.80;99.90;;;;;;4872429;29;20461;-76
2022/10/11 14:37:29;;;;;;;11.07;6.80;;;17.80;99.90;;;;;;4872838;29;20469;-77
2022/10/11 14:39:55;;;;;;;19.77;8.03;;;17.80;99.90;;;;;;4871882;29;20476;-77
2022/10/11 14:42:22;;;;;;;12.53;7.90;;;17.70;99.90;;;;;;4871769;29;20481;-76
2022/10/11 14:44:49;;;;;;;13.30;7.27;;;17.80;99.90;;;;;;4871886;29;20508;-76
2022/10/11 14:47:17;;;;;;;10.47;7.03;;;17.80;99.90;;;;;;4872668;29;20476;-76
2022/10/11 14:49:44;;;;;;;15.60;7.73;;;17.70;99.90;;;;;;4872678;29;20461;-76
2022/10/11 14:52:13;;;;;;;18.73;8.13;;;17.80;99.90;;;;;;4872672;29;20503;-76
2022/10/11 14:54:41;;;;;;;14.10;7.50;;;17.80;99.90;;;;;;4869878;29;20986;-76
2022/10/11 14:57:11;;;;;;;14.63;7.30;;;17.80;99.90;;;;;;4872526;29;20836;-76
2022/10/11 14:59:38;;;;;;;14.80;7.77;;;17.80;99.90;;;;;;4872408;29;21288;-76
2022/10/11 15:02:07;;;;;;;10.10;7.27;;;17.70;99.90;;;;;;4871934;29;20499;-76
2022/10/11 15:04:34;;;;;;;19.00;7.80;;;17.80;99.90;;;;;;4871472;29;20504;-77
2022/10/11 15:07:01;;;;;;;15.03;7.90;;;17.80;99.90;;;;;;4872546;29;20465;-77
2022/10/11 15:09:29;;;;;;;10.33;7.70;;;17.70;99.90;;;;;;4872465;29;20465;-77
2022/10/11 15:11:58;;;;;;;14.00;7.20;;;17.70;99.90;;;;;;4871737;29;20488;-77
2022/10/11 15:14:25;;;;;;;13.33;6.40;;;17.80;99.90;;;;;;4871653;29;20472;-77
2022/10/11 15:16:52;;;;;;;16.13;8.03;;;17.70;99.90;;;;;;4872256;29;20457;-77
2022/10/11 15:19:21;;;;;;;11.67;7.17;;;17.70;99.90;;;;;;4872306;29;20465;-77
2022/10/11 15:21:48;;;;;;;11.53;7.53;;;17.80;99.90;;;;;;4872423;29;20484;-77
2022/10/11 15:24:15;;;;;;;16.50;7.30;;;17.80;99.90;;;;;;4871236;29;20468;-76
2022/10/11 15:26:43;;;;;;;17.87;6.60;;;17.80;99.90;;;;;;4871655;29;20749;-77
2022/10/11 15:29:16;;;;;;;15.00;7.53;;;17.80;99.90;;;;;;4872109;29;20473;-77
2022/10/11 15:31:43;;;;;;;11.17;7.10;;;17.80;99.90;;;;;;4871504;29;20575;-77
2022/10/11 15:34:13;;;;;;;13.23;7.30;;;17.70;99.90;;;;;;4871419;29;20468;-77
2022/10/11 15:36:39;;;;;;;18.23;7.97;;;17.70;99.90;;;;;;4871503;29;20469;-77
2022/10/11 15:39:23;;;;;;;11.90;7.00;;;17.60;99.90;;;;;;4871950;29;20468;-77
2022/10/11 15:41:50;;;;;;;15.37;7.30;;;17.70;99.90;;;;;;4871842;29;20545;-77
2022/10/11 15:44:21;;;;;;;15.07;7.43;;;17.60;99.90;;;;;;4871483;29;20478;-77
2022/10/11 15:46:48;;;;;;;13.70;7.40;;;17.60;99.90;;;;;;4871576;29;20950;-77
2022/10/11 15:49:15;;;;;;;16.77;8.53;;;17.60;99.90;;;;;;4872073;29;20465;-77
2022/10/11 15:51:42;;;;;;;18.47;8.03;;;17.60;99.90;;;;;;4871727;29;21282;-77
2022/10/11 15:54:09;;;;;;;13.77;8.23;;;17.60;99.90;;;;;;4869531;29;20487;-77
2022/10/11 15:56:36;;;;;;;11.17;6.80;;;17.50;99.90;;;;;;4871942;29;20449;-77
2022/10/11 15:59:02;;;;;;;16.07;8.40;;;17.50;99.90;;;;;;4871692;29;20464;-75
2022/10/11 16:01:31;;;;;;;15.40;7.90;;;17.50;99.90;;;;;;4886678;29;21180;-78
2022/10/11 16:03:57;;;;;;;13.83;7.80;;;17.50;99.90;;;;;;4898247;29;20543;-76
2022/10/11 16:06:24;;;;;;;15.47;8.20;;;17.50;99.90;;;;;;4904457;29;20498;-75
2022/10/11 16:08:51;;;;;;;13.70;8.10;;;17.40;99.90;;;;;;4909383;29;20469;-76
2022/10/11 16:11:18;;;;;;;18.03;8.87;;;17.40;99.90;;;;;;4909184;29;20539;-76
2022/10/11 16:13:45;;;;;;;19.03;7.60;;;17.30;99.90;;;;;;4909180;29;20498;-76
2022/10/11 16:16:12;;;;;;;13.73;8.80;;;17.30;99.90;;;;;;4908459;29;20461;-76
2022/10/11 16:18:40;;;;;;;18.07;8.73;;;17.30;99.90;;;;;;4905344;29;20464;-75
2022/10/11 16:21:08;;;;;;;18.27;8.70;;;17.20;99.90;;;;;;4889800;29;20480;-75
2022/10/11 16:23:35;;;;;;;13.27;8.00;;;17.20;99.90;;;;;;4890238;29;20498;-75
2022/10/11 16:26:05;;;;;;;19.43;9.83;;;17.20;99.90;;;;;;4889516;29;20496;-75
2022/10/11 16:28:32;;;;;;;20.00;8.97;;;17.10;99.90;;;;;;4890252;29;20470;-75
2022/10/11 16:30:59;;;;;;;16.40;9.43;;;17.10;99.90;;;;;;4889923;29;20480;-76
2022/10/11 16:33:27;;;;;;;17.03;9.57;;;17.00;99.90;;;;;;4889839;29;20471;-75
2022/10/11 16:36:30;;;;;;;15.37;10.07;;;16.90;99.90;;;;;;4889404;29;20467;-75
2022/10/11 16:38:42;;;;;;;20.83;10.20;;;16.80;99.90;;;;;;4889673;29;20460;-75
2022/10/11 16:41:08;;;;;;;20.20;9.53;;;16.70;99.90;;;;;;4889816;29;20490;-75
2022/10/11 16:43:35;;;;;;;20.47;10.10;;;16.70;99.90;;;;;;4892568;29;20467;-76
2022/10/11 16:46:02;;;;;;;16.87;9.67;;;16.60;99.90;;;;;;4892708;29;20499;-76
2022/10/11 16:48:29;;;;;;;12.03;9.43;;;16.60;99.90;;;;;;4893253;29;20467;-76
2022/10/11 16:51:07;;;;;;;18.10;10.43;;;16.50;99.90;;;;;;4893520;29;20487;-76